Time;durP1;ratioP1;P1;durP2;ratioP2;P2;SDS_P1;SDS_P2;PMS_P1;PMS_P2;Temp;Humidity;BMP_temperature;BMP_pressure;BME280_temperature;BME280_humidity;BME280_pressure;Samples;Min_cycle;Max_cycle;Signal;HPM_P1;HPM_P2
2022/08/18 00:01:50;;;;;;;12.27;11.00;;;;;;;21.32;93.26;99843.22;5064449;28;20470;-71
2022/08/18 00:04:17;;;;;;;9.97;9.07;;;;;;;21.31;93.20;99849.75;5068823;28;20578;-70
2022/08/18 00:06:44;;;;;;;10.83;9.73;;;;;;;21.30;92.44;99846.16;5064816;28;20510;-71
2022/08/18 00:09:11;;;;;;;10.70;9.60;;;;;;;21.34;91.98;99843.94;5061811;28;20955;-71
2022/08/18 00:11:41;;;;;;;10.87;9.77;;;;;;;21.39;92.05;99842.50;5055019;28;20440;-71
2022/08/18 00:14:10;;;;;;;10.70;8.80;;;;;;;21.34;93.85;99844.81;5070185;28;20956;-70
2022/08/18 00:16:37;;;;;;;18.20;9.53;;;;;;;21.28;93.69;99839.97;5055057;28;20480;-73
2022/08/18 00:19:05;;;;;;;12.97;9.80;;;;;;;21.26;94.07;99852.06;5058978;28;20463;-71
2022/08/18 00:21:32;;;;;;;12.10;9.00;;;;;;;21.24;93.49;99846.75;5066378;28;20482;-70
2022/08/18 00:23:59;;;;;;;11.90;8.90;;;;;;;21.17;94.10;99849.22;5066419;28;20483;-71
2022/08/18 00:26:26;;;;;;;9.70;8.80;;;;;;;21.01;93.61;99858.09;5064361;28;20463;-73
2022/08/18 00:28:52;;;;;;;9.97;9.07;;;;;;;21.00;93.35;99850.88;5062493;28;20484;-72
2022/08/18 00:31:19;;;;;;;10.87;9.73;;;;;;;20.96;93.01;99846.72;5065882;28;20971;-71
2022/08/18 00:33:46;;;;;;;12.07;9.57;;;;;;;20.92;93.46;99863.59;5061260;28;20559;-72
2022/08/18 00:36:13;;;;;;;10.73;9.57;;;;;;;20.83;94.24;99862.63;5058431;28;20493;-70
2022/08/18 00:38:40;;;;;;;11.33;10.13;;;;;;;20.75;95.63;99859.75;5058084;28;20459;-71
2022/08/18 00:41:07;;;;;;;11.43;9.97;;;;;;;20.70;96.01;99864.81;5054704;28;21000;-70
2022/08/18 00:43:41;;;;;;;11.60;9.57;;;;;;;20.77;94.98;99857.72;5061217;28;20547;-71
2022/08/18 00:46:09;;;;;;;11.60;9.77;;;;;;;20.81;94.91;99865.50;5054977;28;20486;-70
2022/08/18 00:48:36;;;;;;;13.50;10.67;;;;;;;20.79;95.03;99866.66;5056449;28;20458;-71
2022/08/18 00:51:10;;;;;;;12.13;9.63;;;;;;;20.77;94.71;99852.25;5061906;28;20505;-72
2022/08/18 00:53:44;;;;;;;12.20;11.00;;;;;;;20.79;94.43;99863.91;5053051;28;20503;-71
2022/08/18 00:56:14;;;;;;;11.53;10.23;;;;;;;20.76;94.57;99876.03;5062355;28;20439;-71
2022/08/18 00:58:44;;;;;;;12.40;10.53;;;;;;;20.65;95.38;99886.28;5064640;28;20462;-71
2022/08/18 01:01:16;;;;;;;11.67;10.03;;;;;;;20.61;95.39;99897.50;5060520;28;20483;-71
2022/08/18 01:03:44;;;;;;;10.53;9.43;;;;;;;20.68;95.39;99897.78;5062860;28;20471;-71
2022/08/18 01:06:16;;;;;;;12.00;10.80;;;;;;;20.82;95.27;99896.44;5052530;28;20833;-72
2022/08/18 01:08:44;;;;;;;11.90;10.20;;;;;;;20.92;94.56;99897.31;5064165;28;20458;-71
2022/08/18 01:11:11;;;;;;;11.33;10.10;;;;;;;20.98;94.51;99901.31;5055210;28;20462;-71
2022/08/18 01:13:40;;;;;;;11.13;9.10;;;;;;;21.03;94.27;99902.59;5064882;28;20474;-71
2022/08/18 01:21:52;;;;;;;11.30;10.20;;;;;;;21.00;95.97;99908.34;5056451;28;20544;-71
2022/08/18 01:25:58;;;;;;;11.93;10.40;;;;;;;21.02;96.56;99909.06;5051567;28;20554;-71
2022/08/18 01:27:17;;;;;;;11.13;9.97;;;;;;;20.99;97.57;99911.25;5057694;28;20542;-70
2022/08/18 01:29:44;;;;;;;11.53;10.33;;;;;;;20.99;97.91;99914.00;5056012;28;20456;-71
2022/08/18 01:32:11;;;;;;;11.70;10.50;;;;;;;21.01;97.75;99921.03;5060250;28;20455;-70
2022/08/18 01:34:38;;;;;;;12.87;11.53;;;;;;;21.06;98.07;99917.00;5057645;28;20503;-70
2022/08/18 01:37:05;;;;;;;11.73;10.30;;;;;;;21.14;97.05;99907.03;5059197;28;20454;-70
2022/08/18 01:39:33;;;;;;;11.27;10.20;;;;;;;20.97;99.13;99910.53;5061913;28;20464;-70
2022/08/18 01:42:03;;;;;;;12.47;11.27;;;;;;;20.92;99.75;99902.78;5055565;28;20491;-70
2022/08/18 01:44:29;;;;;;;13.37;10.30;;;;;;;20.96;99.75;99906.94;5060556;28;20486;-70
2022/08/18 01:46:56;;;;;;;14.00;10.87;;;;;;;21.01;99.27;99910.09;5061813;28;20458;-71
2022/08/18 01:49:22;;;;;;;12.20;11.00;;;;;;;21.05;98.56;99902.44;5059460;28;20829;-70
2022/08/18 01:51:49;;;;;;;13.53;12.13;;;;;;;21.11;98.75;99887.28;5060039;28;20986;-70
2022/08/18 01:54:16;;;;;;;11.87;10.60;;;;;;;21.24;96.47;99882.34;5054443;28;21036;-71
2022/08/18 01:56:43;;;;;;;11.67;10.23;;;;;;;21.27;96.44;99884.75;5057949;28;20439;-72
2022/08/18 01:59:13;;;;;;;14.53;11.60;;;;;;;21.33;96.43;99886.06;5052310;28;20471;-69
2022/08/18 02:01:41;;;;;;;12.70;11.40;;;;;;;21.28;96.94;99889.25;5062650;28;20478;-72
2022/08/18 02:04:09;;;;;;;15.87;12.10;;;;;;;21.21;97.66;99893.56;5063242;28;20482;-71
2022/08/18 02:06:36;;;;;;;12.03;10.93;;;;;;;21.12;98.54;99897.22;5042307;28;20547;-70
2022/08/18 02:09:04;;;;;;;14.20;11.40;;;;;;;20.84;100.00;99910.84;5078397;28;20951;-72
2022/08/18 02:11:30;;;;;;;13.73;11.37;;;;;;;20.74;100.00;99902.69;5061646;28;20482;-71
2022/08/18 02:13:58;;;;;;;14.20;11.60;;;;;;;20.62;100.00;99912.03;5053103;28;20547;-71
2022/08/18 02:16:24;;;;;;;12.17;10.97;;;;;;;20.73;100.00;99905.53;5066007;28;20940;-71
2022/08/18 02:18:51;;;;;;;13.80;11.90;;;;;;;20.61;100.00;99902.97;5062308;28;20455;-71
2022/08/18 02:21:20;;;;;;;12.63;11.10;;;;;;;20.65;100.00;99908.16;5063841;28;20479;-70
2022/08/18 02:23:48;;;;;;;12.50;11.20;;;;;;;20.71;100.00;99913.03;5068827;28;20479;-70
2022/08/18 02:26:17;;;;;;;12.50;11.30;;;;;;;20.63;100.00;99918.41;5060939;28;20455;-69
2022/08/18 02:28:44;;;;;;;13.70;11.63;;;;;;;20.63;100.00;99907.44;5065631;28;20514;-69
2022/08/18 02:31:15;;;;;;;11.43;10.33;;;;;;;20.66;100.00;99909.88;5080018;28;20477;-69
2022/08/18 02:33:42;;;;;;;11.70;10.70;;;;;;;20.75;100.00;99914.47;5081926;28;20439;-69
2022/08/18 02:36:10;;;;;;;14.00;12.03;;;;;;;20.75;100.00;99907.13;5079915;28;20981;-71
2022/08/18 02:38:37;;;;;;;13.40;12.00;;;;;;;20.66;100.00;99910.75;5050599;28;21138;-71
2022/08/18 02:41:06;;;;;;;14.30;12.80;;;;;;;20.42;100.00;99908.44;5060201;28;20491;-71
2022/08/18 02:43:33;;;;;;;12.57;11.37;;;;;;;20.38;100.00;99909.75;5065497;28;20480;-71
2022/08/18 02:46:00;;;;;;;12.53;11.23;;;;;;;20.40;100.00;99905.00;5064417;28;20432;-70
2022/08/18 02:48:32;;;;;;;14.67;11.67;;;;;;;20.43;100.00;99893.75;5063327;28;20456;-71
2022/08/18 02:51:00;;;;;;;13.53;11.20;;;;;;;20.45;100.00;99899.94;5065498;28;20448;-71
2022/08/18 02:53:27;;;;;;;13.17;11.87;;;;;;;20.40;100.00;99905.00;5083336;28;20509;-68
2022/08/18 02:55:54;;;;;;;13.03;11.73;;;;;;;20.45;100.00;99894.47;5078032;28;20459;-71
2022/08/18 02:58:21;;;;;;;12.40;11.10;;;;;;;20.49;100.00;99898.66;5078245;28;20455;-69
2022/08/18 03:00:47;;;;;;;11.60;10.50;;;;;;;20.56;100.00;99891.63;5064847;28;20482;-71
2022/08/18 03:03:14;;;;;;;14.67;11.13;;;;;;;20.64;100.00;99901.81;5059766;28;20532;-71
2022/08/18 03:05:42;;;;;;;13.03;10.77;;;;;;;20.69;100.00;99901.38;5061340;28;20469;-71
2022/08/18 03:08:09;;;;;;;12.50;10.60;;;;;;;20.68;100.00;99895.03;5055503;28;20547;-71
2022/08/18 03:10:35;;;;;;;11.20;10.17;;;;;;;20.78;100.00;99895.00;5044584;28;20860;-70
2022/08/18 03:13:03;;;;;;;11.03;9.93;;;;;;;20.75;100.00;99909.00;5052568;28;20494;-71
2022/08/18 03:15:29;;;;;;;11.40;10.20;;;;;;;20.72;100.00;99906.56;5048657;28;20537;-70
2022/08/18 03:17:56;;;;;;;12.57;10.97;;;;;;;20.67;100.00;99900.66;5066631;28;20989;-71
2022/08/18 03:20:23;;;;;;;12.60;11.13;;;;;;;20.68;100.00;99906.00;5064972;28;20482;-71
2022/08/18 03:22:51;;;;;;;12.17;10.90;;;;;;;20.67;100.00;99903.38;5057035;28;20558;-71
2022/08/18 03:25:18;;;;;;;12.30;11.10;;;;;;;20.61;100.00;99900.25;5061458;28;20462;-71
2022/08/18 03:27:44;;;;;;;15.40;11.27;;;;;;;20.57;100.00;99904.25;5061346;28;20546;-71
2022/08/18 03:30:11;;;;;;;13.47;12.07;;;;;;;20.52;100.00;99909.28;5057035;28;20530;-70
2022/08/18 03:32:37;;;;;;;12.17;10.87;;;;;;;20.54;100.00;99909.16;5070586;28;20494;-71
2022/08/18 03:35:06;;;;;;;13.03;11.63;;;;;;;20.49;100.00;99906.84;5058915;28;20568;-72
2022/08/18 03:37:32;;;;;;;15.10;12.00;;;;;;;20.49;100.00;99908.75;5063077;28;20454;-71
2022/08/18 03:40:00;;;;;;;13.13;11.70;;;;;;;20.42;100.00;99908.44;5066700;28;20545;-71
2022/08/18 03:42:27;;;;;;;14.27;12.40;;;;;;;20.50;100.00;99916.78;5059865;28;20475;-70
2022/08/18 03:44:53;;;;;;;13.13;11.77;;;;;;;20.50;100.00;99914.03;5068474;28;20460;-71
2022/08/18 03:47:20;;;;;;;13.13;11.83;;;;;;;20.45;100.00;99910.03;5071980;28;20479;-71
2022/08/18 03:49:47;;;;;;;11.80;10.60;;;;;;;20.46;100.00;99912.59;5061057;28;20458;-71
2022/08/18 03:52:14;;;;;;;14.13;12.60;;;;;;;20.46;100.00;99917.22;5072284;28;20443;-71
2022/08/18 03:54:42;;;;;;;13.30;11.90;;;;;;;20.45;100.00;99918.22;5057655;28;20485;-71
2022/08/18 03:57:11;;;;;;;13.03;11.73;;;;;;;20.51;100.00;99917.63;5055789;28;20482;-71
2022/08/18 03:59:40;;;;;;;14.87;11.03;;;;;;;20.60;100.00;99911.34;5056788;28;20999;-71
2022/08/18 04:02:07;;;;;;;12.60;10.27;;;;;;;20.59;100.00;99910.47;5072306;28;20478;-71
2022/08/18 04:04:34;;;;;;;11.23;10.17;;;;;;;20.64;100.00;99901.81;5064131;28;20561;-71
2022/08/18 04:07:04;;;;;;;12.63;10.60;;;;;;;20.63;100.00;99910.19;5063022;28;20448;-71
2022/08/18 04:09:32;;;;;;;14.53;11.27;;;;;;;20.63;100.00;99907.44;5061225;28;20450;-73
2022/08/18 04:12:04;;;;;;;15.00;11.63;;;;;;;20.66;100.00;99902.53;5056638;28;21008;-71
2022/08/18 04:14:32;;;;;;;19.17;11.90;;;;;;;20.60;100.00;99917.69;5086278;22;20495;-72
2022/08/18 04:16:59;;;;;;;12.10;10.50;;;;;;;20.57;100.00;99906.16;5074774;28;20483;-71
2022/08/18 04:19:26;;;;;;;12.17;10.97;;;;;;;20.54;100.00;99906.41;5064107;28;20886;-72
2022/08/18 04:21:53;;;;;;;18.67;10.83;;;;;;;20.56;100.00;99912.63;5068496;28;20478;-74
2022/08/18 04:24:20;;;;;;;12.40;11.20;;;;;;;20.56;100.00;99899.81;5062816;28;20993;-72
2022/08/18 04:26:47;;;;;;;12.33;11.03;;;;;;;20.58;100.00;99906.00;5054589;28;20466;-72
2022/08/18 04:29:16;;;;;;;11.70;10.40;;;;;;;20.54;100.00;99901.81;5044574;28;20826;-72
2022/08/18 04:31:44;;;;;;;10.57;9.43;;;;;;;20.61;100.00;99902.97;5046273;28;20458;-73
2022/08/18 04:34:11;;;;;;;11.67;10.50;;;;;;;20.61;100.00;99911.19;5045957;28;20480;-71
2022/08/18 04:36:38;;;;;;;12.80;11.07;;;;;;;20.61;100.00;99902.97;5051072;28;20460;-72
2022/08/18 04:39:07;;;;;;;17.50;15.23;;;;;;;20.63;100.00;99900.09;5053582;28;20459;-71
2022/08/18 04:41:34;;;;;;;19.17;15.80;;;;;;;20.63;100.00;99901.97;5054730;28;20487;-71
2022/08/18 04:44:04;;;;;;;14.80;11.80;;;;;;;20.65;100.00;99905.44;5046636;28;20480;-72
2022/08/18 04:46:35;;;;;;;13.37;11.97;;;;;;;20.59;100.00;99909.59;5052830;28;20934;-72
2022/08/18 04:49:03;;;;;;;12.63;11.17;;;;;;;20.69;100.00;99904.09;5046899;28;20514;-73
2022/08/18 04:51:30;;;;;;;10.73;9.67;;;;;;;20.71;100.00;99902.09;5045085;28;20460;-72
2022/08/18 04:53:56;;;;;;;12.53;11.23;;;;;;;20.68;100.00;99902.41;5053963;28;20479;-72
2022/08/18 04:56:25;;;;;;;11.57;10.20;;;;;;;20.76;100.00;99911.59;5043838;28;20443;-72
2022/08/18 04:58:54;;;;;;;11.90;10.57;;;;;;;20.77;100.00;99910.56;5049086;28;20456;-72
2022/08/18 05:01:25;;;;;;;13.40;8.90;;;;;;;20.75;100.00;99909.84;5052841;28;20483;-73
2022/08/18 05:03:53;;;;;;;10.07;9.07;;;;;;;20.79;100.00;99910.44;5046836;28;20479;-72
2022/08/18 05:06:24;;;;;;;10.60;9.50;;;;;;;20.76;100.00;99910.75;5052694;28;20451;-73
2022/08/18 05:08:51;;;;;;;10.83;9.30;;;;;;;20.77;100.00;99917.94;5059045;28;20542;-71
2022/08/18 05:11:17;;;;;;;9.67;8.67;;;;;;;20.82;100.00;99924.66;5045450;28;21014;-71
2022/08/18 05:13:44;;;;;;;10.67;8.30;;;;;;;20.81;100.00;99919.38;5049284;28;20482;-71
2022/08/18 05:16:10;;;;;;;10.37;9.00;;;;;;;20.86;100.00;99928.00;5044365;28;20543;-71
2022/08/18 05:18:39;;;;;;;8.67;7.80;;;;;;;20.93;100.00;99920.06;5049574;28;20977;-72
2022/08/18 05:21:07;;;;;;;9.90;8.90;;;;;;;20.92;100.00;99938.34;5044811;28;20555;-71
2022/08/18 05:23:35;;;;;;;13.07;8.90;;;;;;;20.84;100.00;99943.69;5041527;28;20476;-71
2022/08/18 05:26:03;;;;;;;10.63;9.53;;;;;;;20.81;100.00;99944.84;5050199;28;20509;-71
2022/08/18 05:28:30;;;;;;;12.07;8.30;;;;;;;20.88;100.00;99942.38;5049215;28;20495;-71
2022/08/18 05:30:57;;;;;;;9.27;8.30;;;;;;;20.83;100.00;99958.41;5049226;28;20470;-71
2022/08/18 05:33:24;;;;;;;9.83;8.83;;;;;;;20.83;100.00;99955.66;5050872;28;20485;-71
2022/08/18 05:36:00;;;;;;;9.27;8.37;;;;;;;20.87;100.00;99951.63;5041576;28;20446;-71
2022/08/18 05:38:40;;;;;;;8.60;7.80;;;;;;;20.86;100.00;99947.16;5041143;28;20527;-71
2022/08/18 05:41:10;;;;;;;8.33;7.43;;;;;;;20.95;100.00;99946.25;5051790;28;20459;-71
2022/08/18 05:43:39;;;;;;;8.77;7.87;;;;;;;20.96;100.00;99941.63;5051056;28;20480;-72
2022/08/18 05:46:07;;;;;;;9.17;8.27;;;;;;;20.99;100.00;99935.91;5044286;28;20471;-71
2022/08/18 05:48:35;;;;;;;9.07;7.23;;;;;;;20.94;100.00;99943.66;5041188;28;20456;-73
2022/08/18 05:51:12;;;;;;;10.10;8.57;;;;;;;20.85;100.00;99937.22;5051684;28;20863;-73
2022/08/18 05:56:46;;;;;;;8.93;7.13;;;;;;;20.92;100.00;99946.56;5053186;28;20483;-72
2022/08/18 05:59:16;;;;;;;9.30;8.30;;;;;;;21.00;100.00;99952.16;5046271;28;20447;-71
2022/08/18 06:01:50;;;;;;;9.90;8.90;;;;;;;20.98;100.00;99945.09;5049349;28;20988;-72
2022/08/18 06:04:26;;;;;;;9.70;8.60;;;;;;;21.01;100.00;99942.94;5054799;28;20496;-71
2022/08/18 06:06:56;;;;;;;10.13;8.00;;;;;;;21.11;100.00;99942.91;5051493;28;20913;-73
2022/08/18 06:09:31;;;;;;;9.63;8.60;;;;;;;21.22;100.00;99936.41;5054502;28;20459;-71
2022/08/18 06:12:07;;;;;;;11.83;8.40;;;;;;;21.29;100.00;99922.97;5047707;28;20502;-72
2022/08/18 06:14:37;;;;;;;11.10;8.23;;;;;;;21.32;100.00;99923.50;5051880;28;20487;-72
2022/08/18 06:17:20;;;;;;;11.17;7.73;;;;;;;21.41;100.00;99916.31;5047993;28;20456;-71
2022/08/18 06:19:58;;;;;;;10.23;7.80;;;;;;;21.52;100.00;99926.22;5046429;28;20464;-71
2022/08/18 06:22:33;;;;;;;8.97;8.07;;;;;;;21.64;100.00;99923.13;5050728;28;20473;-71
2022/08/18 06:25:11;;;;;;;15.50;8.40;;;;;;;21.69;100.00;99919.06;5048159;28;20825;-71
2022/08/18 06:27:47;;;;;;;11.50;8.90;;;;;;;21.72;100.00;99911.38;5044695;28;20901;-71
2022/08/18 06:30:19;;;;;;;14.03;9.10;;;;;;;21.67;100.00;99915.63;5053240;28;20458;-71
2022/08/18 06:33:02;;;;;;;11.83;8.17;;;;;;;21.71;100.00;99912.41;5056391;28;20960;-71
2022/08/18 06:35:35;;;;;;;16.30;8.03;;;;;;;21.76;100.00;99914.69;5051186;28;20458;-72
2022/08/18 06:41:11;;;;;;;16.20;9.50;;;;;;;21.64;100.00;99917.66;5054215;28;20590;-72
2022/08/18 06:43:42;;;;;;;11.90;9.40;;;;;;;21.70;100.00;99921.63;5047611;28;20487;-71
2022/08/18 06:46:17;;;;;;;12.47;8.70;;;;;;;21.64;100.00;99928.59;5054663;28;20459;-72
2022/08/18 06:48:50;;;;;;;38.40;9.97;;;;;;;21.68;100.00;99918.19;5041659;28;20523;-71
2022/08/18 06:51:20;;;;;;;13.70;9.20;;;;;;;21.65;100.00;99930.31;5039335;28;20463;-72
2022/08/18 06:53:54;;;;;;;12.20;9.07;;;;;;;21.68;100.00;99928.28;5047774;28;20466;-72
2022/08/18 06:56:25;;;;;;;9.70;8.50;;;;;;;21.61;100.00;99937.09;5055339;28;20455;-74
2022/08/18 06:58:54;;;;;;;13.10;8.93;;;;;;;21.51;100.00;99935.47;5056236;28;20454;-71
2022/08/18 07:01:23;;;;;;;39.17;11.00;;;;;;;21.61;100.00;99936.25;5047392;28;20510;-71
2022/08/18 07:03:53;;;;;;;21.57;9.50;;;;;;;21.38;100.00;99939.34;5050253;28;20490;-70
2022/08/18 07:06:31;;;;;;;17.17;9.23;;;;;;;21.39;100.00;99941.09;5054952;28;20509;-71
2022/08/18 07:09:19;;;;;;;13.20;9.40;;;;;;;21.40;100.00;99940.09;5047530;28;20506;-71
2022/08/18 07:12:02;;;;;;;12.70;9.00;;;;;;;21.36;100.00;99946.00;5049326;28;20442;-71
2022/08/18 07:14:29;;;;;;;12.27;9.67;;;;;;;21.35;100.00;99958.84;5052690;28;20482;-71
2022/08/18 07:17:11;;;;;;;12.73;9.30;;;;;;;21.36;100.00;99954.22;5055128;28;20852;-71
2022/08/18 07:19:37;;;;;;;16.97;10.47;;;;;;;21.16;100.00;99948.78;5044934;28;20510;-71
2022/08/18 07:22:08;;;;;;;11.40;9.00;;;;;;;21.26;100.00;99959.72;5041738;28;20481;-70
2022/08/18 07:24:39;;;;;;;12.37;8.70;;;;;;;21.29;100.00;99955.84;5045811;28;21013;-72
2022/08/18 07:27:10;;;;;;;13.33;9.03;;;;;;;21.35;100.00;99961.56;5045795;28;20451;-72
2022/08/18 07:29:40;;;;;;;9.63;8.40;;;;;;;21.24;100.00;99965.34;5045246;28;20464;-73
2022/08/18 07:32:13;;;;;;;14.33;8.60;;;;;;;21.14;100.00;99971.84;5054231;28;20465;-71
2022/08/18 07:34:43;;;;;;;9.57;8.63;;;;;;;21.12;100.00;99976.63;5045166;28;20486;-70
2022/08/18 07:37:18;;;;;;;12.07;9.53;;;;;;;21.07;100.00;99979.81;5054087;28;20442;-69
2022/08/18 07:39:51;;;;;;;10.10;8.97;;;;;;;21.21;100.00;99984.81;5053150;28;20446;-70
2022/08/18 07:42:35;;;;;;;9.90;8.93;;;;;;;21.45;100.00;99983.47;5059800;28;20838;-71
2022/08/18 07:45:06;;;;;;;11.10;9.00;;;;;;;21.57;100.00;99989.63;5039522;28;20543;-69
2022/08/18 07:47:38;;;;;;;10.00;8.90;;;;;;;21.44;100.00;99996.31;5059824;28;20452;-70
2022/08/18 07:50:07;;;;;;;12.10;9.37;;;;;;;21.56;100.00;100002.47;5060010;28;20426;-71
2022/08/18 07:52:38;;;;;;;11.63;9.43;;;;;;;21.54;100.00;100009.97;5059852;28;20526;-71
2022/08/18 07:55:10;;;;;;;19.10;9.20;;;;;;;21.61;100.00;100010.22;5058952;28;20703;-70
2022/08/18 07:57:44;;;;;;;11.13;10.03;;;;;;;21.54;100.00;100009.13;5061170;28;20424;-71
2022/08/18 08:00:22;;;;;;;10.30;9.20;;;;;;;21.40;100.00;100015.91;5057933;28;20419;-71
2022/08/18 08:03:00;;;;;;;11.00;8.90;;;;;;;21.40;100.00;100025.00;5056995;28;20463;-71
2022/08/18 08:05:39;;;;;;;21.60;19.40;;;;;;;21.52;100.00;100017.47;5057389;28;20498;-70
2022/08/18 08:08:15;;;;;;;11.57;10.37;;;;;;;21.40;100.00;100019.53;5045809;28;20438;-70
2022/08/18 08:10:52;;;;;;;18.33;12.83;;;;;;;21.43;100.00;100016.47;5064555;28;20424;-70
2022/08/18 08:13:28;;;;;;;10.73;9.70;;;;;;;21.27;100.00;100024.44;5057320;28;20459;-72
2022/08/18 08:16:02;;;;;;;19.03;10.53;;;;;;;21.37;100.00;100030.75;5055868;28;20451;-69
2022/08/18 08:18:41;;;;;;;15.13;9.93;;;;;;;21.44;100.00;100026.44;5054997;28;20423;-70
2022/08/18 08:21:11;;;;;;;12.60;9.63;;;;;;;21.55;100.00;100027.25;5054548;28;20801;-70
2022/08/18 08:23:47;;;;;;;16.60;10.63;;;;;;;21.69;100.00;100032.28;5063970;28;20488;-72
2022/08/18 08:26:36;;;;;;;12.43;10.43;;;;;;;21.59;100.00;100037.78;5056171;28;20451;-72
2022/08/18 08:29:17;;;;;;;13.00;9.90;;;;;;;21.70;100.00;100042.22;5037801;28;20421;-69
2022/08/18 08:31:50;;;;;;;12.40;10.50;;;;;;;21.84;100.00;100036.25;5051296;28;20432;-68
2022/08/18 08:34:24;;;;;;;12.80;9.90;;;;;;;21.89;100.00;100046.78;5056371;28;20562;-68
2022/08/18 08:36:57;;;;;;;11.33;10.23;;;;;;;21.96;100.00;100041.53;5049278;28;20805;-67
2022/08/18 08:39:31;;;;;;;11.60;9.93;;;;;;;22.07;100.00;100044.09;5034846;28;20447;-68
2022/08/18 08:42:05;;;;;;;12.60;10.17;;;;;;;22.09;100.00;100039.28;5035145;28;20443;-68
2022/08/18 08:44:39;;;;;;;12.17;10.97;;;;;;;22.08;100.00;100034.81;5063114;28;20515;-68
2022/08/18 08:47:10;;;;;;;12.67;10.90;;;;;;;22.14;100.00;100039.72;5059291;28;20450;-68
2022/08/18 08:49:40;;;;;;;11.93;10.20;;;;;;;22.11;100.00;100040.00;5056392;28;20443;-68
2022/08/18 08:52:16;;;;;;;12.83;11.53;;;;;;;22.34;100.00;100039.59;5055763;28;20444;-67
2022/08/18 08:54:48;;;;;;;15.60;10.30;;;;;;;22.62;100.00;100044.03;5054578;28;20551;-71
2022/08/18 08:57:16;;;;;;;12.47;10.30;;;;;;;22.91;100.00;100037.44;5051071;28;20470;-73
2022/08/18 08:59:46;;;;;;;11.57;10.23;;;;;;;23.06;100.00;100035.88;5056181;28;20424;-71
2022/08/18 09:02:37;;;;;;;11.00;9.90;;;;;;;23.04;100.00;100039.81;5056225;28;20424;-67
2022/08/18 09:05:10;;;;;;;15.10;10.40;;;;;;;23.03;100.00;100041.69;5055155;28;20455;-70
2022/08/18 09:07:54;;;;;;;13.47;11.60;;;;;;;23.08;100.00;100043.97;5055932;28;20420;-74
2022/08/18 09:10:40;;;;;;;14.27;10.50;;;;;;;22.88;100.00;100033.16;5034638;28;20459;-69
2022/08/18 09:13:39;;;;;;;11.57;10.30;;;;;;;23.01;100.00;100040.13;5046957;28;20430;-67
2022/08/18 09:16:19;;;;;;;13.57;11.13;;;;;;;23.05;100.00;100039.66;5025069;28;20865;-69
2022/08/18 09:18:56;;;;;;;12.53;11.27;;;;;;;23.16;100.00;100040.44;5051567;28;20457;-69
2022/08/18 09:21:37;;;;;;;74.60;63.83;;;;;;;23.43;100.00;100043.03;5050840;28;20444;-68
2022/08/18 09:24:12;;;;;;;31.30;25.57;;;;;;;23.48;100.00;100037.06;5033073;28;21023;-70
2022/08/18 09:26:49;;;;;;;13.40;11.07;;;;;;;23.46;100.00;100025.34;5035550;28;20883;-70
2022/08/18 09:29:26;;;;;;;14.87;12.73;;;;;;;23.49;100.00;100033.28;5044803;28;20453;-69
2022/08/18 09:32:35;;;;;;;16.20;12.83;;;;;;;23.63;100.00;100034.56;5052583;28;20459;-68
2022/08/18 09:35:13;;;;;;;14.97;12.57;;;;;;;23.66;100.00;100021.34;5043786;28;20483;-68
2022/08/18 09:41:30;;;;;;;12.97;11.27;;;;;;;23.78;99.86;100023.84;5049214;28;20452;-73
2022/08/18 09:43:34;;;;;;;12.50;11.30;;;;;;;23.91;98.65;100029.75;5046771;28;20554;-73
2022/08/18 09:46:03;;;;;;;14.27;11.07;;;;;;;23.97;99.53;100037.34;5055916;28;20527;-75
2022/08/18 09:48:34;;;;;;;13.00;10.40;;;;;;;24.09;98.77;100037.91;5055271;28;20547;-76
2022/08/18 09:51:19;;;;;;;15.03;13.53;;;;;;;24.01;100.00;100044.22;5053051;28;20455;-75
2022/08/18 09:54:05;;;;;;;14.57;13.07;;;;;;;23.99;100.00;100039.94;5052849;28;20468;-75
2022/08/18 09:57:15;;;;;;;16.00;13.00;;;;;;;24.17;100.00;100037.06;5053098;28;20428;-75
2022/08/18 10:00:21;;;;;;;16.90;15.13;;;;;;;24.00;100.00;100036.16;5054563;28;20446;-73
2022/08/18 10:03:13;;;;;;;19.37;14.40;;;;;;;24.00;100.00;100042.53;5047521;28;20609;-73
2022/08/18 10:05:56;;;;;;;18.90;14.67;;;;;;;23.90;100.00;100045.41;5053504;28;20424;-74
2022/08/18 10:09:14;;;;;;;17.27;15.57;;;;;;;23.91;100.00;100044.38;5058959;28;20419;-73
2022/08/18 10:11:55;;;;;;;18.93;13.87;;;;;;;23.44;100.00;100044.75;5053748;28;20525;-73
2022/08/18 10:14:35;;;;;;;16.83;13.50;;;;;;;23.66;100.00;100034.25;5073509;22;21132;-70
2022/08/18 10:17:13;;;;;;;14.33;12.77;;;;;;;23.68;100.00;100034.94;5071352;28;20423;-70
2022/08/18 10:19:51;;;;;;;15.83;14.20;;;;;;;23.39;100.00;100035.28;5070813;28;20425;-74
2022/08/18 10:22:38;;;;;;;16.23;13.53;;;;;;;23.16;100.00;100040.44;5071431;28;20439;-70
2022/08/18 10:25:08;;;;;;;16.30;13.40;;;;;;;23.32;100.00;100046.06;5060869;28;20902;-70
2022/08/18 10:27:47;;;;;;;22.73;17.87;;;;;;;23.36;100.00;100043.81;5051186;28;20444;-71
2022/08/18 10:30:44;;;;;;;16.70;14.70;;;;;;;23.40;100.00;100047.97;5051551;28;20719;-70
2022/08/18 10:33:11;;;;;;;17.50;15.20;;;;;;;23.34;100.00;100052.25;5051201;28;20435;-70
2022/08/18 10:35:55;;;;;;;21.10;17.23;;;;;;;23.22;100.00;100051.66;5050055;28;20482;-70
2022/08/18 10:38:28;;;;;;;20.53;18.10;;;;;;;23.39;100.00;100066.34;5051315;28;20431;-72
2022/08/18 10:41:01;;;;;;;22.77;18.97;;;;;;;23.36;100.00;100058.44;5051729;28;20427;-72
2022/08/18 10:43:36;;;;;;;22.07;18.33;;;;;;;23.43;100.00;100064.16;5051388;28;20896;-70
2022/08/18 10:46:03;;;;;;;21.63;18.97;;;;;;;23.62;100.00;100061.19;5055371;28;20461;-71
2022/08/18 10:48:33;;;;;;;22.60;19.60;;;;;;;23.70;100.00;100060.38;5054610;28;20727;-71
2022/08/18 10:51:14;;;;;;;21.70;19.40;;;;;;;23.71;100.00;100070.34;5055191;28;20562;-71
2022/08/18 10:53:48;;;;;;;25.27;20.23;;;;;;;24.03;100.00;100068.81;5054886;28;20424;-70
2022/08/18 10:56:29;;;;;;;22.93;19.10;;;;;;;23.91;100.00;100057.25;5054805;28;20860;-71
2022/08/18 10:59:06;;;;;;;25.17;20.57;;;;;;;24.02;100.00;100037.72;5054669;28;20411;-72
2022/08/18 11:01:56;;;;;;;20.80;18.47;;;;;;;24.47;100.00;100035.63;5054923;28;20771;-71
2022/08/18 11:04:29;;;;;;;20.97;18.53;;;;;;;24.94;100.00;100032.25;5055377;28;20578;-71
2022/08/18 11:07:03;;;;;;;22.30;19.83;;;;;;;25.18;100.00;100028.66;5055080;28;20427;-71
2022/08/18 11:09:33;;;;;;;23.20;19.60;;;;;;;25.36;100.00;100036.75;5054891;28;20445;-72
2022/08/18 11:12:02;;;;;;;25.10;19.57;;;;;;;25.45;96.19;100040.38;5054753;28;20479;-72
2022/08/18 11:14:48;;;;;;;21.47;19.33;;;;;;;25.21;93.21;100039.34;5054065;28;20470;-70
2022/08/18 11:17:26;;;;;;;20.23;18.03;;;;;;;25.45;90.53;100030.19;5054070;28;20478;-71
2022/08/18 11:19:54;;;;;;;21.37;18.70;;;;;;;25.64;89.13;100030.84;5053963;28;20439;-71
2022/08/18 11:22:23;;;;;;;20.73;18.30;;;;;;;25.95;87.75;100037.31;5053794;28;20647;-70
2022/08/18 11:24:51;;;;;;;19.30;17.30;;;;;;;25.70;86.25;100043.94;5054355;28;20570;-71
2022/08/18 11:27:21;;;;;;;19.47;17.53;;;;;;;26.11;84.45;100027.25;5054787;28;20447;-72
2022/08/18 11:29:48;;;;;;;18.80;16.93;;;;;;;26.11;81.71;100025.34;5055114;28;20430;-71
2022/08/18 11:32:23;;;;;;;19.97;17.87;;;;;;;26.56;81.09;100028.44;5054156;28;20784;-71
2022/08/18 11:34:52;;;;;;;20.50;18.40;;;;;;;27.32;74.09;100009.22;5053690;28;21000;-72
2022/08/18 11:37:25;;;;;;;20.30;18.40;;;;;;;27.95;70.11;99987.56;5053438;28;20501;-71
2022/08/18 11:39:56;;;;;;;19.57;17.67;;;;;;;28.49;65.76;99965.03;5053017;28;20420;-71
2022/08/18 11:42:29;;;;;;;18.03;16.23;;;;;;;30.26;58.50;99956.50;5053427;28;20428;-70
2022/08/18 11:45:05;;;;;;;22.20;16.53;;;;;;;32.18;50.76;99949.16;5053602;28;20498;-72
2022/08/18 11:47:32;;;;;;;16.70;15.10;;;;;;;32.19;50.43;99950.00;5053379;28;20447;-71
2022/08/18 11:50:08;;;;;;;16.90;15.33;;;;;;;31.44;51.76;99946.81;5053525;28;20490;-71